createdAt,value
2023-02-03T00:00:15.257Z,101937.97
2023-02-03T00:02:45.613Z,101936.56
2023-02-03T00:05:14.883Z,101946.81
2023-02-03T00:07:44.620Z,101951.19
2023-02-03T00:10:13.515Z,101946.81
2023-02-03T00:12:42.916Z,101946.72
2023-02-03T00:15:13.233Z,101957.06
2023-02-03T00:17:45.201Z,101962.16
2023-02-03T00:20:17.839Z,101961.50
2023-02-03T00:22:46.952Z,101973.09
2023-02-03T00:25:16.599Z,101983.50
2023-02-03T00:27:44.675Z,101983.88
2023-02-03T00:30:15.613Z,101985.38
2023-02-03T00:32:44.077Z,101970.78
2023-02-03T00:35:13.332Z,101987.28
2023-02-03T00:37:46.985Z,101981.78
2023-02-03T00:40:16.574Z,101981.25
2023-02-03T00:42:45.555Z,101976.53
2023-02-03T00:45:15.378Z,101971.22
2023-02-03T00:47:43.763Z,101976.84
2023-02-03T00:50:14.896Z,101978.13
2023-02-03T00:52:46.168Z,101968.75
2023-02-03T00:55:16.699Z,101959.22
2023-02-03T00:57:45.558Z,101972.28
2023-02-03T01:00:16.212Z,101975.34
2023-02-03T01:02:45.137Z,101967.34
2023-02-03T01:05:14.411Z,101973.31
2023-02-03T01:07:44.124Z,101992.34
2023-02-03T01:10:13.024Z,102002.09
2023-02-03T01:12:42.000Z,102004.31
2023-02-03T01:15:11.933Z,101996.56
2023-02-03T01:17:42.328Z,102006.94
2023-02-03T01:20:14.959Z,102014.19
2023-02-03T01:22:44.819Z,101999.75
2023-02-03T01:25:12.737Z,101991.16
2023-02-03T01:27:41.072Z,101991.44
2023-02-03T01:30:12.917Z,102005.53
2023-02-03T01:32:43.919Z,102005.28
2023-02-03T01:35:12.061Z,101999.09
2023-02-03T01:37:40.629Z,102000.88
2023-02-03T01:40:13.946Z,101995.44
2023-02-03T01:42:42.922Z,101990.44
2023-02-03T01:45:14.399Z,101985.50
2023-02-03T01:47:49.833Z,101984.13
2023-02-03T01:50:30.537Z,101975.03
2023-02-03T01:53:22.323Z,101963.50
2023-02-03T01:55:50.715Z,101974.16
2023-02-03T01:58:20.723Z,101976.31
2023-02-03T02:00:49.717Z,101980.41
2023-02-03T02:03:20.228Z,101982.28
2023-02-03T02:06:03.868Z,101984.84
2023-02-03T02:08:32.150Z,101988.25
2023-02-03T02:11:03.319Z,101979.63
2023-02-03T02:13:31.986Z,101972.28
2023-02-03T02:16:23.556Z,101971.50
2023-02-03T02:19:01.196Z,101970.47
2023-02-03T02:21:43.930Z,101976.00
2023-02-03T02:24:23.379Z,101976.38
2023-02-03T02:27:17.456Z,101988.84
2023-02-03T02:30:11.734Z,101980.94
2023-02-03T02:32:49.485Z,101968.78
2023-02-03T02:35:40.685Z,101971.84
2023-02-03T02:38:46.203Z,101979.75
2023-02-03T02:41:22.239Z,102007.41
2023-02-03T02:44:04.923Z,102016.97
2023-02-03T02:46:48.112Z,102018.28
2023-02-03T02:49:35.434Z,102034.41
2023-02-03T02:52:11.452Z,102037.91
2023-02-03T02:54:41.168Z,102040.66
2023-02-03T02:57:10.101Z,102035.53
2023-02-03T02:59:59.946Z,102038.22
2023-02-03T03:02:35.189Z,102030.25
2023-02-03T03:05:06.188Z,102010.84
2023-02-03T03:07:36.561Z,102008.16
2023-02-03T03:10:08.098Z,102014.94
2023-02-03T03:12:35.865Z,102016.97
2023-02-03T03:15:25.279Z,102022.00
2023-02-03T03:18:14.063Z,102028.72
2023-02-03T03:20:43.222Z,102034.19
2023-02-03T03:23:16.017Z,102021.75
2023-02-03T03:26:05.807Z,102021.25
2023-02-03T03:28:53.995Z,102012.13
2023-02-03T03:31:21.496Z,102013.78
2023-02-03T03:33:53.665Z,102019.47
2023-02-03T03:36:29.486Z,102010.84
2023-02-03T03:39:05.354Z,102018.53
2023-02-03T03:41:57.775Z,102026.44
2023-02-03T03:44:28.502Z,102044.59
2023-02-03T03:47:00.893Z,102061.88
2023-02-03T03:49:29.595Z,102069.97
2023-02-03T03:52:02.400Z,102078.72
2023-02-03T03:54:32.691Z,102082.09
2023-02-03T03:57:17.675Z,102068.47
2023-02-03T03:59:46.273Z,102062.75
2023-02-03T04:02:15.631Z,102069.59
2023-02-03T04:04:43.494Z,102071.34
2023-02-03T04:07:12.996Z,102065.19
2023-02-03T04:09:43.016Z,102061.00
2023-02-03T04:12:45.921Z,102067.19
2023-02-03T04:15:14.753Z,102078.34
2023-02-03T04:17:42.673Z,102079.25
2023-02-03T04:20:14.372Z,102068.34
2023-02-03T04:22:42.488Z,102073.69
2023-02-03T04:25:11.661Z,102071.38
2023-02-03T04:27:40.692Z,102072.88
2023-02-03T04:30:09.825Z,102072.25
2023-02-03T04:32:38.369Z,102064.50
2023-02-03T04:35:06.000Z,102067.34
2023-02-03T04:37:34.018Z,102051.41
2023-02-03T04:40:02.496Z,102037.22
2023-02-03T04:42:30.496Z,102028.13
2023-02-03T04:44:58.872Z,102009.28
2023-02-03T04:47:27.170Z,102003.94
2023-02-03T04:49:55.338Z,102016.72
2023-02-03T04:52:23.375Z,102023.75
2023-02-03T04:54:51.676Z,102026.75
2023-02-03T04:57:19.485Z,102030.81
2023-02-03T04:59:48.146Z,102026.88
2023-02-03T05:02:15.979Z,102026.63
2023-02-03T05:04:43.971Z,102024.81
2023-02-03T05:07:12.405Z,102014.19
2023-02-03T05:09:40.589Z,102026.13
2023-02-03T05:12:09.120Z,102040.03
2023-02-03T05:14:38.215Z,102050.53
2023-02-03T05:17:06.394Z,102047.84
2023-02-03T05:19:34.677Z,102048.81
2023-02-03T05:22:05.403Z,102049.06
2023-02-03T05:24:36.651Z,102062.41
2023-02-03T05:27:05.096Z,102062.41
2023-02-03T05:29:33.297Z,102060.06
2023-02-03T05:32:01.902Z,102071.22
2023-02-03T05:34:30.372Z,102066.16
2023-02-03T05:36:57.935Z,102066.31
2023-02-03T05:39:27.107Z,102058.38
2023-02-03T05:41:57.324Z,102049.69
2023-02-03T05:44:28.800Z,102048.88
2023-02-03T05:46:58.010Z,102059.28
2023-02-03T05:49:25.819Z,102058.25
2023-02-03T05:51:54.103Z,102069.50
2023-02-03T05:54:22.535Z,102079.56
2023-02-03T05:56:50.893Z,102070.84
2023-02-03T05:59:19.668Z,102064.75
2023-02-03T06:01:47.981Z,102070.28
2023-02-03T06:04:16.118Z,102081.59
2023-02-03T06:06:47.798Z,102070.44
2023-02-03T06:09:15.601Z,102074.94
2023-02-03T06:11:42.881Z,102070.19
2023-02-03T06:14:10.659Z,102068.28
2023-02-03T06:16:39.411Z,102063.63
2023-02-03T06:19:07.023Z,102073.28
2023-02-03T06:21:35.552Z,102072.50
2023-02-03T06:24:03.844Z,102065.47
2023-02-03T06:26:32.988Z,102071.00
2023-02-03T06:29:01.395Z,102075.81
2023-02-03T06:31:29.709Z,102074.59
2023-02-03T06:33:57.481Z,102079.94
2023-02-03T06:36:25.508Z,102081.25
2023-02-03T06:38:53.580Z,102098.03
2023-02-03T06:41:27.760Z,102101.88
2023-02-03T06:43:56.612Z,102098.84
2023-02-03T06:46:29.459Z,102086.66
2023-02-03T06:48:57.197Z,102081.91
2023-02-03T06:51:26.083Z,102114.78
2023-02-03T06:53:55.158Z,102117.16
2023-02-03T06:56:23.055Z,102132.53
2023-02-03T06:58:53.887Z,102144.44
2023-02-03T07:01:21.625Z,102173.91
2023-02-03T07:03:49.865Z,102172.22
2023-02-03T07:06:17.931Z,102157.56
2023-02-03T07:08:46.711Z,102167.22
2023-02-03T07:11:20.452Z,102173.13
2023-02-03T07:13:49.219Z,102163.81
2023-02-03T07:16:19.226Z,102164.34
2023-02-03T07:18:48.432Z,102161.72
2023-02-03T07:21:16.327Z,102169.28
2023-02-03T07:23:45.688Z,102155.13
2023-02-03T07:26:13.929Z,102170.41
2023-02-03T07:28:41.717Z,102165.56
2023-02-03T07:31:10.669Z,102154.44
2023-02-03T07:33:39.487Z,102158.81
2023-02-03T07:36:10.131Z,102163.78
2023-02-03T07:38:41.125Z,102175.63
2023-02-03T07:41:09.340Z,102188.09
2023-02-03T07:43:37.065Z,102188.50
2023-02-03T07:46:05.813Z,102201.44
2023-02-03T07:48:33.529Z,102200.88
2023-02-03T07:51:02.131Z,102191.22
2023-02-03T07:53:29.901Z,102181.41
2023-02-03T07:56:03.388Z,102191.97
2023-02-03T07:58:31.974Z,102190.84
2023-02-03T08:00:59.714Z,102189.41
2023-02-03T08:03:27.860Z,102194.00
2023-02-03T08:05:55.815Z,102198.84
2023-02-03T08:08:23.659Z,102204.69
2023-02-03T08:10:52.190Z,102204.56
2023-02-03T08:13:20.581Z,102196.03
2023-02-03T08:15:49.137Z,102204.19
2023-02-03T08:18:19.689Z,102201.66
2023-02-03T08:20:51.185Z,102186.16
2023-02-03T08:23:19.796Z,102166.69
2023-02-03T08:25:54.034Z,102172.56
2023-02-03T08:28:22.357Z,102183.78
2023-02-03T08:30:50.235Z,102183.41
2023-02-03T08:33:18.587Z,102164.16
2023-02-03T08:35:47.610Z,102174.75
2023-02-03T08:38:15.798Z,102171.94
2023-02-03T08:40:43.515Z,102155.63
2023-02-03T08:43:14.280Z,102153.09
2023-02-03T08:45:42.796Z,102155.50
2023-02-03T08:48:10.524Z,102168.09
2023-02-03T08:50:38.822Z,102162.97
2023-02-03T08:53:08.713Z,102170.59
2023-02-03T08:55:39.601Z,102177.09
2023-02-03T08:58:07.993Z,102178.59
2023-02-03T09:00:36.132Z,102179.06
2023-02-03T09:03:04.414Z,102192.59
2023-02-03T09:05:34.148Z,102181.00
2023-02-03T09:08:02.609Z,102189.03
2023-02-03T09:10:31.398Z,102194.88
2023-02-03T09:12:59.773Z,102198.44
2023-02-03T09:15:51.699Z,102204.66
2023-02-03T09:18:22.643Z,102197.28
2023-02-03T09:20:50.741Z,102188.06
2023-02-03T09:23:21.733Z,102188.06
2023-02-03T09:25:50.520Z,102182.56
2023-02-03T09:28:18.638Z,102203.91
2023-02-03T09:30:47.716Z,102226.50
2023-02-03T09:33:16.057Z,102233.94
2023-02-03T09:35:52.366Z,102231.81
2023-02-03T09:38:21.004Z,102231.63
2023-02-03T09:41:11.206Z,102241.78
2023-02-03T09:43:57.010Z,102233.13
2023-02-03T09:46:26.589Z,102228.56
2023-02-03T09:48:59.930Z,102217.91
2023-02-03T09:51:36.272Z,102212.38
2023-02-03T09:54:49.347Z,102205.66
2023-02-03T09:57:24.700Z,102212.44
2023-02-03T09:59:52.201Z,102213.88
2023-02-03T10:02:19.136Z,102219.38
2023-02-03T10:04:57.838Z,102201.22
2023-02-03T10:07:43.735Z,102192.91
2023-02-03T10:10:27.509Z,102195.91
2023-02-03T10:13:25.880Z,102181.00
2023-02-03T10:16:09.100Z,102187.97
2023-02-03T10:18:42.780Z,102188.44
2023-02-03T10:21:17.565Z,102191.09
2023-02-03T10:23:44.373Z,102194.56
2023-02-03T10:26:16.809Z,102183.34
2023-02-03T10:28:58.873Z,102183.41
2023-02-03T10:31:28.469Z,102184.16
2023-02-03T10:34:28.044Z,102182.81
2023-02-03T10:36:57.997Z,102178.22
2023-02-03T10:39:56.775Z,102177.28
2023-02-03T10:42:24.517Z,102175.41
2023-02-03T10:44:56.430Z,102169.44
2023-02-03T10:47:36.322Z,102155.94
2023-02-03T10:50:17.208Z,102142.97
2023-02-03T10:52:45.447Z,102139.66
2023-02-03T10:55:27.603Z,102130.28
2023-02-03T10:57:55.254Z,102120.34
2023-02-03T11:00:24.402Z,102108.72
2023-02-03T11:03:03.789Z,102097.72
2023-02-03T11:05:32.291Z,102112.72
2023-02-03T11:08:00.449Z,102106.41
2023-02-03T11:10:35.642Z,102106.59
2023-02-03T11:13:25.100Z,102114.25
2023-02-03T11:15:58.113Z,102124.72
2023-02-03T11:18:40.980Z,102122.94
2023-02-03T11:21:17.366Z,102100.25
2023-02-03T11:23:53.686Z,102099.94
2023-02-03T11:26:23.675Z,102098.66
2023-02-03T11:28:52.277Z,102092.13
2023-02-03T11:31:30.113Z,102084.81
2023-02-03T11:34:00.055Z,102069.91
2023-02-03T11:36:29.106Z,102071.72
2023-02-03T11:39:10.765Z,102081.31
2023-02-03T11:41:39.128Z,102085.44
2023-02-03T11:44:20.478Z,102081.56
2023-02-03T11:46:51.701Z,102070.19
2023-02-03T11:49:47.244Z,102044.75
2023-02-03T11:53:14.169Z,102035.28
2023-02-03T11:55:48.799Z,102036.81
2023-02-03T11:58:42.224Z,102040.22
2023-02-03T12:01:15.201Z,102026.19
2023-02-03T12:04:04.114Z,102024.78
2023-02-03T12:07:08.297Z,102018.06
2023-02-03T12:09:56.689Z,102010.47
2023-02-03T12:12:42.044Z,102001.47
2023-02-03T12:15:37.043Z,101994.59
2023-02-03T12:18:26.878Z,101993.28
2023-02-03T12:21:14.610Z,101981.66
2023-02-03T12:24:12.052Z,101981.25
2023-02-03T12:27:10.081Z,101962.63
2023-02-03T12:29:51.760Z,101956.31
2023-02-03T12:32:25.239Z,101969.53
2023-02-03T12:35:16.702Z,101959.84
2023-02-03T12:38:14.108Z,101945.44
2023-02-03T12:40:53.292Z,101937.50
2023-02-03T12:43:26.755Z,101920.31
2023-02-03T12:45:56.681Z,101913.22
2023-02-03T12:48:26.516Z,101906.28
2023-02-03T12:50:57.627Z,101904.75
2023-02-03T12:53:30.611Z,101894.06
2023-02-03T12:56:23.675Z,101888.09
2023-02-03T12:59:05.612Z,101894.47
2023-02-03T13:01:50.393Z,101885.25
2023-02-03T13:04:49.820Z,101876.63
2023-02-03T13:07:50.348Z,101876.63
2023-02-03T13:10:32.548Z,101863.00
2023-02-03T13:13:00.209Z,101846.81
2023-02-03T13:15:34.513Z,101836.25
2023-02-03T13:18:11.066Z,101833.50
2023-02-03T13:20:38.534Z,101851.03
2023-02-03T13:23:11.118Z,101834.84
2023-02-03T13:26:12.240Z,101837.47
2023-02-03T13:28:51.347Z,101846.44
2023-02-03T13:31:36.247Z,101834.97
2023-02-03T13:34:25.012Z,101836.63
2023-02-03T13:36:57.862Z,101840.38
2023-02-03T13:39:30.654Z,101829.41
2023-02-03T13:42:28.437Z,101828.56
2023-02-03T13:45:05.969Z,101836.47
2023-02-03T13:47:33.717Z,101825.91
2023-02-03T13:50:02.961Z,101832.63
2023-02-03T13:52:40.226Z,101836.22
2023-02-03T13:55:08.333Z,101825.78
2023-02-03T13:57:36.407Z,101825.28
2023-02-03T14:00:12.422Z,101822.38
2023-02-03T14:02:42.444Z,101817.16
2023-02-03T14:05:29.965Z,101810.47
2023-02-03T14:07:58.335Z,101801.59
2023-02-03T14:10:26.244Z,101798.44
2023-02-03T14:12:53.299Z,101809.22
2023-02-03T14:15:26.380Z,101800.25
2023-02-03T14:17:53.709Z,101797.94
2023-02-03T14:20:29.440Z,101798.81
2023-02-03T14:22:58.651Z,101784.25
2023-02-03T14:25:27.668Z,101787.41
2023-02-03T14:28:13.018Z,101790.41
2023-02-03T14:31:04.513Z,101810.06
2023-02-03T14:33:46.469Z,101807.63
2023-02-03T14:36:36.111Z,101791.59
2023-02-03T14:39:30.800Z,101785.84
2023-02-03T14:42:13.208Z,101800.53
2023-02-03T14:45:11.247Z,101801.47
2023-02-03T14:47:56.931Z,101781.34
2023-02-03T14:50:29.447Z,101783.66
2023-02-03T14:53:06.465Z,101781.63
2023-02-03T14:55:44.141Z,101785.28
2023-02-03T14:58:25.270Z,101792.22
2023-02-03T15:01:00.457Z,101786.00
2023-02-03T15:03:30.272Z,101797.44
2023-02-03T15:06:04.937Z,101802.41
2023-02-03T15:08:44.352Z,101798.97
2023-02-03T15:11:30.181Z,101796.44
2023-02-03T15:14:16.995Z,101790.06
2023-02-03T15:16:45.791Z,101788.75
2023-02-03T15:19:20.940Z,101788.91
2023-02-03T15:21:49.189Z,101779.25
2023-02-03T15:24:21.512Z,101776.59
2023-02-03T15:26:50.696Z,101779.13
2023-02-03T15:29:26.714Z,101788.03
2023-02-03T15:31:57.830Z,101790.13
2023-02-03T15:34:27.020Z,101802.44
2023-02-03T15:36:56.213Z,101786.63
2023-02-03T15:39:39.197Z,101778.47
2023-02-03T15:42:12.965Z,101769.22
2023-02-03T15:44:42.947Z,101794.03
2023-02-03T15:47:26.139Z,101769.63
2023-02-03T15:50:01.221Z,101758.13
2023-02-03T15:52:33.749Z,101781.16
2023-02-03T15:55:14.256Z,101763.25
2023-02-03T15:57:41.910Z,101772.00
2023-02-03T16:00:34.138Z,101769.66
2023-02-03T16:03:01.026Z,101768.19
2023-02-03T16:05:34.314Z,101765.13
2023-02-03T16:08:49.041Z,101752.34
2023-02-03T16:11:30.326Z,101760.97
2023-02-03T16:14:00.517Z,101756.81
2023-02-03T16:16:31.733Z,101784.84
2023-02-03T16:19:38.373Z,101768.88
2023-02-03T16:22:26.101Z,101762.66
2023-02-03T16:24:54.188Z,101759.13
2023-02-03T16:27:33.406Z,101769.09
2023-02-03T16:30:41.713Z,101753.72
2023-02-03T16:33:27.126Z,101742.59
2023-02-03T16:36:16.702Z,101719.19
2023-02-03T16:39:07.311Z,101718.84
2023-02-03T16:41:53.359Z,101710.03
2023-02-03T16:44:39.337Z,101697.72
2023-02-03T16:47:44.477Z,101719.53
2023-02-03T16:50:40.943Z,101736.09
2023-02-03T16:53:17.123Z,101723.59
2023-02-03T16:55:45.721Z,101732.50
2023-02-03T16:58:13.432Z,101722.97
2023-02-03T17:00:42.101Z,101723.47
2023-02-03T17:03:11.704Z,101711.28
2023-02-03T17:05:42.120Z,101716.88
2023-02-03T17:08:12.533Z,101727.13
2023-02-03T17:10:41.648Z,101730.81
2023-02-03T17:13:10.096Z,101732.88
2023-02-03T17:15:41.413Z,101740.84
2023-02-03T17:18:08.690Z,101744.13
2023-02-03T17:20:36.218Z,101741.34
2023-02-03T17:23:04.472Z,101729.34
2023-02-03T17:25:36.001Z,101751.47
2023-02-03T17:28:26.853Z,101738.78
2023-02-03T17:31:02.062Z,101719.81
2023-02-03T17:33:29.967Z,101706.66
2023-02-03T17:36:17.218Z,101709.97
2023-02-03T17:55:19.709Z,101666.66
2023-02-03T17:57:48.051Z,101671.75
2023-02-03T18:00:18.197Z,101687.16
2023-02-03T18:02:49.222Z,101677.22
2023-02-03T18:05:17.301Z,101662.59
2023-02-03T18:07:45.179Z,101670.97
2023-02-03T18:10:12.938Z,101657.28
2023-02-03T18:12:41.367Z,101648.16
2023-02-03T18:15:10.487Z,101632.44
2023-02-03T18:17:38.540Z,101627.22
2023-02-03T18:20:08.400Z,101623.19
2023-02-03T18:22:36.876Z,101633.63
2023-02-03T18:25:05.080Z,101643.16
2023-02-03T18:27:34.826Z,101638.34
2023-02-03T18:30:03.085Z,101635.19
2023-02-03T18:32:31.286Z,101630.56
2023-02-03T18:35:00.922Z,101616.44
2023-02-03T18:37:29.341Z,101610.41
2023-02-03T18:39:57.635Z,101620.72
2023-02-03T18:42:25.852Z,101621.22
2023-02-03T18:44:54.028Z,101619.75
2023-02-03T18:47:22.136Z,101612.97
2023-02-03T18:49:49.672Z,101590.78
2023-02-03T18:52:17.784Z,101596.75
2023-02-03T18:54:49.605Z,101607.38
2023-02-03T18:57:18.190Z,101612.56
2023-02-03T18:59:45.741Z,101607.22
2023-02-03T19:02:13.764Z,101614.69
2023-02-03T19:04:41.620Z,101603.38
2023-02-03T19:07:09.525Z,101596.31
2023-02-03T19:09:37.160Z,101607.91
2023-02-03T19:12:06.241Z,101608.81
2023-02-03T19:14:34.074Z,101602.22
2023-02-03T19:17:01.829Z,101576.09
2023-02-03T19:19:30.546Z,101551.88
2023-02-03T19:21:58.652Z,101549.56
2023-02-03T19:24:27.227Z,101554.50
2023-02-03T19:26:54.475Z,101551.22
2023-02-03T19:29:22.596Z,101548.06
2023-02-03T19:31:50.498Z,101540.50
2023-02-03T19:34:19.977Z,101536.19
2023-02-03T19:36:48.076Z,101528.00
2023-02-03T19:39:16.095Z,101533.75
2023-02-03T19:41:44.054Z,101534.63
2023-02-03T19:44:12.456Z,101522.97
2023-02-03T19:46:42.199Z,101514.75
2023-02-03T19:49:13.210Z,101508.09
2023-02-03T19:51:41.187Z,101507.59
2023-02-03T19:54:10.735Z,101502.91
2023-02-03T19:56:39.107Z,101490.09
2023-02-03T19:59:06.917Z,101506.97
2023-02-03T20:01:35.575Z,101490.50
2023-02-03T20:04:02.790Z,101506.38
2023-02-03T20:06:31.785Z,101497.63
2023-02-03T20:09:00.196Z,101479.00
2023-02-03T20:11:29.195Z,101474.56
2023-02-03T20:13:57.784Z,101485.75
2023-02-03T20:16:24.933Z,101475.97
2023-02-03T20:18:53.290Z,101466.91
2023-02-03T20:21:21.542Z,101460.25
2023-02-03T20:23:49.955Z,101459.69
2023-02-03T20:26:18.434Z,101456.13
2023-02-03T20:28:47.397Z,101449.97
2023-02-03T20:31:15.392Z,101454.00
2023-02-03T20:33:43.858Z,101455.31
2023-02-03T20:36:12.480Z,101470.34
2023-02-03T20:38:40.494Z,101469.97
2023-02-03T20:41:10.608Z,101458.31
2023-02-03T20:43:39.266Z,101474.44
2023-02-03T20:46:32.236Z,101464.50
2023-02-03T20:49:00.150Z,101451.53
2023-02-03T20:51:29.259Z,101451.34
2023-02-03T20:53:57.249Z,101459.50
2023-02-03T20:56:26.356Z,101465.19
2023-02-03T20:58:54.530Z,101457.72
2023-02-03T21:01:22.921Z,101456.28
2023-02-03T21:04:11.169Z,101465.50
2023-02-03T21:06:39.923Z,101452.88
2023-02-03T21:09:14.955Z,101448.34
2023-02-03T21:11:43.270Z,101449.94
2023-02-03T21:14:22.194Z,101454.44
2023-02-03T21:16:50.459Z,101454.44
2023-02-03T21:19:38.659Z,101449.16
2023-02-03T21:22:22.922Z,101439.53
2023-02-03T21:25:01.774Z,101434.22
2023-02-03T21:27:32.915Z,101438.84
2023-02-03T21:30:01.836Z,101445.44
2023-02-03T21:32:38.391Z,101435.22
2023-02-03T21:35:26.800Z,101439.13
2023-02-03T21:37:57.130Z,101437.00
2023-02-03T21:40:26.575Z,101455.22
2023-02-03T21:42:54.626Z,101456.88
2023-02-03T21:45:32.345Z,101456.00
2023-02-03T21:48:03.534Z,101463.66
2023-02-03T21:50:35.284Z,101435.78
2023-02-03T21:53:09.528Z,101446.97
2023-02-03T21:55:38.108Z,101438.44
2023-02-03T21:58:30.659Z,101446.91
2023-02-03T22:00:58.620Z,101459.44
2023-02-03T22:03:43.383Z,101464.44
2023-02-03T22:06:13.167Z,101468.56
2023-02-03T22:08:44.397Z,101450.81
2023-02-03T22:11:11.959Z,101443.44
2023-02-03T22:13:39.812Z,101442.94
2023-02-03T22:16:07.831Z,101447.75
2023-02-03T22:18:35.597Z,101453.50
2023-02-03T22:21:03.441Z,101438.69
2023-02-03T22:23:30.984Z,101439.34
2023-02-03T22:25:58.138Z,101449.25
2023-02-03T22:28:26.780Z,101451.63
2023-02-03T22:30:54.144Z,101459.63
2023-02-03T22:33:22.626Z,101456.97
2023-02-03T22:35:51.070Z,101460.59
2023-02-03T22:38:19.603Z,101471.25
2023-02-03T22:40:47.134Z,101465.59
2023-02-03T22:43:15.123Z,101484.63
2023-02-03T22:45:43.514Z,101464.66
2023-02-03T22:48:10.662Z,101462.13
2023-02-03T22:50:38.973Z,101462.22
2023-02-03T22:53:08.969Z,101473.56
2023-02-03T22:55:38.446Z,101468.25
2023-02-03T22:58:08.194Z,101478.84
2023-02-03T23:00:35.795Z,101474.63
2023-02-03T23:03:04.255Z,101477.28
2023-02-03T23:05:32.398Z,101474.28
2023-02-03T23:08:01.633Z,101461.84
2023-02-03T23:10:32.150Z,101466.63
2023-02-03T23:13:02.979Z,101454.28
2023-02-03T23:15:30.709Z,101464.19
2023-02-03T23:17:58.571Z,101458.13
2023-02-03T23:20:26.285Z,101454.19
2023-02-03T23:22:54.441Z,101455.00
2023-02-03T23:25:23.595Z,101458.41
2023-02-03T23:27:51.732Z,101446.66
2023-02-03T23:30:20.745Z,101460.28
2023-02-03T23:32:49.032Z,101472.59
2023-02-03T23:35:35.738Z,101457.31
2023-02-03T23:38:03.722Z,101460.25
2023-02-03T23:40:31.902Z,101476.88
2023-02-03T23:43:00.360Z,101476.81
2023-02-03T23:45:30.566Z,101466.22
2023-02-03T23:47:58.720Z,101468.19
2023-02-03T23:50:27.059Z,101447.53
2023-02-03T23:52:55.646Z,101445.84
2023-02-03T23:55:23.613Z,101467.47
2023-02-03T23:57:51.810Z,101446.47
